aviador You're here:

KGPT Decoded Metar

GULFPORT in MS, USA
Report Time2018-01-18 20:53:00
UTC Time2018-01-18 21:40:36
Flight Rules vfr VFR
WindVRB at 06 kt
Visibility9999 m
Phenomena:N/A
Clouds:N/A
Expected CloudBase > 8,400 ft AGL from Temp-Dew spread
CeilingNone
Temp09°C (ISA -6)
Dew Point-12°C (21% RH)
AAT3.6°C
QNH1030 hPa
Density Alt-1,198 ft
Elevation46 ft
Report Wrong Elevation
Raw Report
KGPT 182053Z VRB06KT 10SM CLR 09/M12 A3043 RMK AO2 SLP303
T00891117 56035=

Extra information for KGPT:More info

Metar Taf Metar & Taf Last 4 Metars F.Rules Stats Wind Profile Meteogram Temp Stats Airport Information Weather charts Add Link Nearby VenuesMetar ALERT Operation Metar Decoded Social comments

AIRNAV info for KGPT